createdAt,value
2019-01-19T00:02:31.080Z,16.00
2019-01-19T00:05:53.132Z,21.50
2019-01-19T00:08:32.491Z,14.23
2019-01-19T00:11:55.749Z,17.63
2019-01-19T00:14:33.594Z,17.83
2019-01-19T00:17:32.369Z,15.80
2019-01-19T00:20:35.390Z,16.20
2019-01-19T00:23:19.501Z,16.37
2019-01-19T00:26:47.650Z,16.07
2019-01-19T00:29:48.053Z,15.43
2019-01-19T00:33:04.430Z,12.43
2019-01-19T00:36:03.700Z,14.63
2019-01-19T00:39:22.801Z,17.33
2019-01-19T00:42:20.039Z,14.67
2019-01-19T00:45:00.389Z,15.50
2019-01-19T00:47:46.430Z,18.60
2019-01-19T00:50:39.852Z,15.50
2019-01-19T00:53:19.068Z,15.73
2019-01-19T00:56:35.754Z,13.43
2019-01-19T00:59:15.764Z,16.20
2019-01-19T01:02:49.852Z,15.00
2019-01-19T01:05:00.914Z,13.37
2019-01-19T01:08:10.423Z,16.47
2019-01-19T01:11:16.383Z,18.60
2019-01-19T01:14:22.484Z,19.93
2019-01-19T01:17:23.990Z,14.63
2019-01-19T01:20:32.924Z,17.13
2019-01-19T01:23:35.118Z,10.30
2019-01-19T01:26:53.283Z,15.30
2019-01-19T01:29:51.463Z,13.90
2019-01-19T01:32:44.688Z,14.87
2019-01-19T01:35:45.732Z,13.23
2019-01-19T01:38:42.484Z,13.83
2019-01-19T01:42:08.296Z,13.40
2019-01-19T01:45:09.493Z,16.83
2019-01-19T01:48:18.290Z,13.67
2019-01-19T01:51:22.092Z,15.47
2019-01-19T01:54:19.896Z,10.00
2019-01-19T01:56:49.182Z,13.10
2019-01-19T01:59:24.524Z,19.20
2019-01-19T02:02:24.090Z,21.23
2019-01-19T02:05:40.448Z,12.67
2019-01-19T02:08:28.019Z,16.97
2019-01-19T02:11:38.833Z,16.13
2019-01-19T02:14:46.031Z,10.87
2019-01-19T02:17:50.941Z,18.07
2019-01-19T02:20:35.775Z,11.90
2019-01-19T02:23:45.662Z,17.03
2019-01-19T02:27:00.821Z,15.67
2019-01-19T02:30:10.818Z,13.23
2019-01-19T02:33:16.024Z,15.67
2019-01-19T02:36:00.552Z,14.20
2019-01-19T02:39:30.192Z,12.00
2019-01-19T02:42:32.170Z,14.00
2019-01-19T02:45:56.172Z,11.13
2019-01-19T02:49:04.035Z,12.00
2019-01-19T02:52:20.795Z,13.87
2019-01-19T02:55:21.511Z,10.27
2019-01-19T02:58:29.708Z,15.10
2019-01-19T03:01:36.012Z,19.27
2019-01-19T03:04:41.859Z,12.40
2019-01-19T03:08:03.955Z,11.37
2019-01-19T03:11:02.036Z,10.13
2019-01-19T03:14:11.390Z,14.10
2019-01-19T03:17:23.737Z,12.20
2019-01-19T03:20:30.198Z,14.73
2019-01-19T03:23:36.251Z,12.43
2019-01-19T03:26:19.880Z,12.83
2019-01-19T03:29:24.280Z,16.13
2019-01-19T03:32:43.568Z,14.63
2019-01-19T03:35:55.452Z,12.17
2019-01-19T03:38:54.212Z,13.03
2019-01-19T03:42:00.695Z,14.37
2019-01-19T03:45:00.601Z,12.27
2019-01-19T03:48:01.234Z,12.97
2019-01-19T03:51:10.349Z,13.57
2019-01-19T03:54:07.641Z,13.13
2019-01-19T03:57:26.997Z,11.43
2019-01-19T04:00:33.185Z,15.27
2019-01-19T04:03:43.321Z,15.73
2019-01-19T04:06:33.660Z,15.67
2019-01-19T04:09:32.349Z,12.77
2019-01-19T04:12:30.430Z,14.03
2019-01-19T04:15:43.279Z,16.27
2019-01-19T04:18:37.181Z,14.13
2019-01-19T04:21:48.250Z,13.50
2019-01-19T04:24:30.397Z,16.33
2019-01-19T04:27:08.363Z,21.23
2019-01-19T04:29:37.495Z,13.43
2019-01-19T04:32:06.613Z,15.33
2019-01-19T04:34:35.813Z,15.77
2019-01-19T04:37:05.866Z,13.80
2019-01-19T04:39:43.677Z,12.13
2019-01-19T04:42:13.390Z,18.80
2019-01-19T04:44:44.816Z,17.20
2019-01-19T04:47:19.816Z,12.73
2019-01-19T04:49:49.007Z,12.83
2019-01-19T04:52:19.822Z,16.33
2019-01-19T04:54:49.040Z,11.87
2019-01-19T04:57:18.189Z,15.57
2019-01-19T04:59:48.535Z,15.20
2019-01-19T05:02:17.601Z,14.70
2019-01-19T05:04:46.731Z,11.53
2019-01-19T05:07:25.434Z,18.17
2019-01-19T05:09:57.797Z,18.37
2019-01-19T05:12:28.021Z,16.63
2019-01-19T05:14:59.714Z,16.07
2019-01-19T05:17:28.837Z,14.63
2019-01-19T05:19:59.574Z,15.23
2019-01-19T05:22:28.759Z,13.00
2019-01-19T05:24:57.887Z,18.17
2019-01-19T05:27:28.362Z,13.67
2019-01-19T05:29:59.172Z,17.57
2019-01-19T05:32:28.256Z,12.10
2019-01-19T05:34:57.987Z,15.50
2019-01-19T05:37:27.130Z,14.83
2019-01-19T05:39:56.276Z,17.77
2019-01-19T05:42:25.417Z,23.87
2019-01-19T05:44:57.348Z,15.70
2019-01-19T05:47:27.724Z,13.77
2019-01-19T05:50:01.233Z,11.37
2019-01-19T05:52:35.855Z,17.40
2019-01-19T05:55:08.614Z,18.00
2019-01-19T05:57:37.366Z,23.30
2019-01-19T06:00:24.376Z,14.40
2019-01-19T06:02:59.647Z,15.97
2019-01-19T06:05:28.857Z,14.03
2019-01-19T06:07:58.055Z,16.47
2019-01-19T06:10:27.292Z,16.50
2019-01-19T06:12:56.758Z,16.10
2019-01-19T06:15:25.975Z,17.37
2019-01-19T06:17:55.128Z,17.30
2019-01-19T06:20:24.269Z,29.80
2019-01-19T06:22:55.068Z,14.20
2019-01-19T06:25:24.316Z,19.10
2019-01-19T06:27:53.651Z,16.33
2019-01-19T06:30:26.198Z,16.80
2019-01-19T06:32:58.383Z,14.90
2019-01-19T06:35:30.756Z,24.30
2019-01-19T06:37:59.625Z,24.37
2019-01-19T06:40:28.725Z,14.53
2019-01-19T06:42:57.894Z,29.27
2019-01-19T06:45:30.688Z,25.10
2019-01-19T06:47:59.863Z,24.00
2019-01-19T06:50:29.243Z,23.43
2019-01-19T06:52:59.488Z,24.27
2019-01-19T06:55:31.443Z,26.23
2019-01-19T06:58:00.951Z,23.40
2019-01-19T07:00:30.418Z,25.90
2019-01-19T07:03:02.010Z,38.63
2019-01-19T07:05:33.103Z,52.80
2019-01-19T07:08:02.039Z,47.10
2019-01-19T07:10:31.181Z,43.63
2019-01-19T07:13:02.170Z,29.80
2019-01-19T07:15:31.260Z,28.53
2019-01-19T07:18:03.564Z,27.63
2019-01-19T07:20:38.891Z,31.07
2019-01-19T07:23:03.699Z,34.67
2019-01-19T07:25:32.818Z,28.33
2019-01-19T07:28:01.938Z,25.90
2019-01-19T07:30:32.767Z,23.30
2019-01-19T07:33:04.887Z,28.83
2019-01-19T07:35:34.010Z,25.17
2019-01-19T07:38:03.134Z,24.00
2019-01-19T07:40:32.875Z,28.17
2019-01-19T07:43:10.638Z,27.50
2019-01-19T07:45:41.306Z,25.77
2019-01-19T07:48:10.798Z,26.20
2019-01-19T07:50:42.396Z,24.30
2019-01-19T07:53:11.662Z,23.30
2019-01-19T07:55:40.955Z,17.97
2019-01-19T07:58:12.566Z,25.23
2019-01-19T08:00:41.709Z,20.67
2019-01-19T08:03:11.367Z,16.00
2019-01-19T08:05:40.500Z,22.33
2019-01-19T08:08:12.837Z,19.60
2019-01-19T08:10:41.958Z,17.83
2019-01-19T08:13:11.276Z,18.03
2019-01-19T08:15:40.532Z,21.47
2019-01-19T08:18:10.366Z,16.50
2019-01-19T08:20:40.575Z,17.53
2019-01-19T08:23:12.695Z,14.07
2019-01-19T08:25:42.148Z,14.80
2019-01-19T08:28:11.295Z,18.37
2019-01-19T08:30:40.445Z,28.90
2019-01-19T08:33:09.604Z,12.87
2019-01-19T08:35:40.932Z,15.07
2019-01-19T08:38:10.044Z,16.53
2019-01-19T08:40:39.567Z,14.13
2019-01-19T08:43:23.897Z,16.27
2019-01-19T08:45:53.224Z,25.33
2019-01-19T08:48:27.825Z,27.40
2019-01-19T08:50:57.347Z,13.57
2019-01-19T08:53:28.143Z,21.30
2019-01-19T08:55:58.966Z,19.63
2019-01-19T08:58:28.812Z,15.00
2019-01-19T09:01:01.066Z,18.57
2019-01-19T09:03:30.217Z,15.00
2019-01-19T09:05:59.349Z,19.40
2019-01-19T09:08:28.626Z,13.70
2019-01-19T09:11:01.077Z,16.13
2019-01-19T09:13:38.463Z,14.93
2019-01-19T09:16:11.567Z,17.03
2019-01-19T09:18:41.803Z,13.20
2019-01-19T09:21:10.879Z,19.53
2019-01-19T09:23:47.901Z,12.20
2019-01-19T09:26:17.959Z,18.20
2019-01-19T09:28:47.442Z,18.30
2019-01-19T09:31:16.912Z,14.63
2019-01-19T09:33:46.031Z,13.20
2019-01-19T09:36:15.151Z,15.90
2019-01-19T09:38:44.365Z,13.97
2019-01-19T09:41:14.768Z,16.60
2019-01-19T09:43:43.897Z,19.93
2019-01-19T09:46:18.621Z,16.97
2019-01-19T09:48:47.739Z,12.67
2019-01-19T09:51:18.660Z,17.40
2019-01-19T09:53:49.387Z,14.07
2019-01-19T09:56:18.633Z,17.87
2019-01-19T09:58:49.129Z,18.00
2019-01-19T10:01:18.337Z,19.20
2019-01-19T10:03:53.142Z,14.30
2019-01-19T10:06:25.677Z,13.57
2019-01-19T10:08:54.809Z,14.20
2019-01-19T10:11:24.011Z,20.53
2019-01-19T10:13:54.298Z,16.80
2019-01-19T10:16:29.364Z,17.97
2019-01-19T10:19:04.085Z,16.00
2019-01-19T10:21:33.578Z,21.37
2019-01-19T10:24:05.301Z,15.17
2019-01-19T10:26:34.421Z,18.00
2019-01-19T10:29:07.462Z,17.30
2019-01-19T10:31:36.567Z,19.40
2019-01-19T10:34:05.683Z,19.70
2019-01-19T10:36:34.812Z,17.17
2019-01-19T10:39:05.565Z,17.23
2019-01-19T10:41:40.810Z,16.97
2019-01-19T10:44:10.097Z,14.40
2019-01-19T10:46:39.197Z,15.80
2019-01-19T10:49:13.906Z,17.33
2019-01-19T10:51:46.241Z,15.43
2019-01-19T10:54:16.342Z,12.70
2019-01-19T10:56:45.464Z,15.87
2019-01-19T10:59:14.615Z,13.23
2019-01-19T11:01:46.452Z,17.00
2019-01-19T11:04:15.550Z,19.97
2019-01-19T11:06:46.253Z,19.80
2019-01-19T11:09:21.229Z,16.03
2019-01-19T11:11:50.381Z,24.33
2019-01-19T11:14:21.114Z,16.00
2019-01-19T11:16:53.200Z,12.83
2019-01-19T11:19:25.518Z,12.33
2019-01-19T11:21:55.265Z,19.50
2019-01-19T11:24:24.700Z,15.33
2019-01-19T11:26:54.133Z,14.40
2019-01-19T11:29:23.234Z,19.60
2019-01-19T11:31:52.708Z,14.90
2019-01-19T11:34:21.816Z,15.30
2019-01-19T11:36:50.949Z,16.63
2019-01-19T11:39:20.091Z,11.93
2019-01-19T11:41:50.458Z,17.97
2019-01-19T11:44:21.335Z,18.87
2019-01-19T11:46:54.604Z,18.13
2019-01-19T11:49:23.727Z,18.97
2019-01-19T11:51:54.388Z,20.00
2019-01-19T11:54:24.670Z,16.00
2019-01-19T11:56:59.860Z,12.87
2019-01-19T11:59:30.717Z,13.03
2019-01-19T12:01:59.983Z,14.37
2019-01-19T12:04:29.087Z,30.47
2019-01-19T12:07:00.766Z,12.60
2019-01-19T12:09:33.967Z,18.30
2019-01-19T12:12:03.771Z,14.10
2019-01-19T12:14:32.895Z,18.63
2019-01-19T12:17:04.317Z,15.70
2019-01-19T12:19:34.994Z,15.90
2019-01-19T12:22:05.581Z,16.57
2019-01-19T12:24:37.128Z,17.63
2019-01-19T12:27:06.350Z,18.87
2019-01-19T12:29:35.500Z,19.00
2019-01-19T12:32:07.627Z,16.37
2019-01-19T12:34:36.787Z,16.87
2019-01-19T12:37:05.908Z,14.53
2019-01-19T12:39:36.953Z,15.73
2019-01-19T12:42:08.358Z,17.50
2019-01-19T12:44:43.610Z,17.10
2019-01-19T12:47:13.119Z,18.10
2019-01-19T12:49:43.835Z,18.40
2019-01-19T12:52:14.066Z,16.50
2019-01-19T12:54:44.235Z,25.63
2019-01-19T12:57:18.601Z,18.57
2019-01-19T12:59:53.672Z,11.43
2019-01-19T13:02:22.927Z,13.27
2019-01-19T13:04:52.093Z,18.53
2019-01-19T13:07:23.672Z,13.33
2019-01-19T13:10:01.462Z,14.40
2019-01-19T13:12:53.302Z,15.43
2019-01-19T13:16:14.355Z,14.47
2019-01-19T13:19:02.764Z,17.93
2019-01-19T13:22:11.923Z,18.20
2019-01-19T13:25:09.595Z,18.47
2019-01-19T13:28:33.140Z,28.30
2019-01-19T13:31:56.652Z,19.47
2019-01-19T13:35:22.201Z,22.23
2019-01-19T13:38:14.130Z,15.37
2019-01-19T13:41:27.371Z,24.33
2019-01-19T13:44:41.952Z,16.40
2019-01-19T13:48:08.285Z,17.90
2019-01-19T13:51:17.883Z,20.40
2019-01-19T13:54:58.538Z,13.10
2019-01-19T13:57:40.753Z,14.53
2019-01-19T14:00:54.225Z,16.60
2019-01-19T14:03:46.942Z,17.50
2019-01-19T14:07:14.650Z,17.00
2019-01-19T14:10:24.811Z,14.70
2019-01-19T14:13:43.473Z,18.53
2019-01-19T14:16:39.952Z,12.23
2019-01-19T14:19:58.008Z,12.30
2019-01-19T14:23:14.103Z,14.23
2019-01-19T14:26:18.319Z,16.93
2019-01-19T14:29:47.653Z,15.03
2019-01-19T14:33:04.995Z,19.47
2019-01-19T14:36:37.844Z,19.40
2019-01-19T14:39:35.146Z,19.53
2019-01-19T14:42:48.094Z,12.27
2019-01-19T14:45:54.611Z,12.60
2019-01-19T14:48:52.884Z,16.00
2019-01-19T14:52:15.809Z,17.77
2019-01-19T14:55:29.955Z,19.73
2019-01-19T14:58:20.510Z,15.73
2019-01-19T15:01:20.212Z,15.93
2019-01-19T15:04:25.020Z,12.80
2019-01-19T15:07:33.885Z,14.27
2019-01-19T15:10:38.154Z,17.20
2019-01-19T15:13:48.241Z,13.50
2019-01-19T15:16:48.576Z,13.40
2019-01-19T15:19:55.612Z,17.20
2019-01-19T15:23:03.666Z,14.53
2019-01-19T15:26:23.071Z,14.93
2019-01-19T15:29:07.466Z,18.83
2019-01-19T15:32:14.686Z,16.00
2019-01-19T15:35:21.341Z,15.03
2019-01-19T15:38:05.884Z,16.90
2019-01-19T15:41:11.407Z,18.83
2019-01-19T15:44:13.591Z,15.80
2019-01-19T15:47:29.810Z,16.63
2019-01-19T15:50:35.559Z,20.23
2019-01-19T15:53:41.258Z,13.07
2019-01-19T15:56:48.742Z,20.23
2019-01-19T16:00:09.619Z,14.70
2019-01-19T16:03:17.776Z,20.83
2019-01-19T16:06:20.843Z,17.70
2019-01-19T16:09:18.283Z,17.30
2019-01-19T16:12:00.180Z,15.33
2019-01-19T16:15:14.260Z,17.03
2019-01-19T16:18:19.370Z,14.33
2019-01-19T16:21:19.230Z,16.67
2019-01-19T16:24:39.033Z,21.20
2019-01-19T16:28:04.537Z,11.73
2019-01-19T16:31:06.541Z,17.30
2019-01-19T16:34:13.549Z,18.70
2019-01-19T16:37:11.005Z,22.77
2019-01-19T16:40:25.984Z,22.10
2019-01-19T16:43:18.680Z,38.70
2019-01-19T16:46:21.258Z,34.17
2019-01-19T16:49:17.527Z,30.40
2019-01-19T16:52:28.095Z,22.13
2019-01-19T16:55:23.803Z,17.43
2019-01-19T16:58:40.226Z,17.53
2019-01-19T17:01:24.440Z,32.73
2019-01-19T17:04:22.418Z,28.40
2019-01-19T17:07:35.420Z,19.07
2019-01-19T17:10:37.603Z,20.00
2019-01-19T17:13:36.100Z,15.50
2019-01-19T17:16:41.198Z,19.93
2019-01-19T17:19:39.377Z,19.90
2019-01-19T17:22:30.105Z,15.60
2019-01-19T17:25:24.206Z,21.67
2019-01-19T17:28:15.055Z,14.93
2019-01-19T17:31:11.159Z,16.50
2019-01-19T17:34:04.776Z,22.20
2019-01-19T17:37:07.786Z,20.67
2019-01-19T17:40:24.062Z,29.43
2019-01-19T17:43:26.346Z,26.83
2019-01-19T17:46:27.578Z,24.03
2019-01-19T17:49:13.457Z,26.30
2019-01-19T17:52:14.642Z,22.27
2019-01-19T17:55:17.547Z,20.90
2019-01-19T17:58:17.670Z,21.10
2019-01-19T18:01:23.651Z,20.20
2019-01-19T18:04:25.991Z,23.33
2019-01-19T18:07:27.262Z,16.70
2019-01-19T18:10:25.518Z,23.00
2019-01-19T18:13:17.353Z,22.53
2019-01-19T18:15:56.625Z,23.00
2019-01-19T18:18:52.457Z,20.20
2019-01-19T18:21:50.582Z,20.77
2019-01-19T18:24:40.211Z,23.20
2019-01-19T18:27:38.345Z,27.60
2019-01-19T18:30:37.479Z,17.60
2019-01-19T18:33:31.858Z,19.97
2019-01-19T18:36:31.712Z,18.07
2019-01-19T18:39:34.335Z,22.87
2019-01-19T18:42:34.508Z,23.00
2019-01-19T18:45:26.368Z,26.47
2019-01-19T18:48:51.525Z,21.97
2019-01-19T18:52:10.029Z,23.87
2019-01-19T18:55:10.581Z,27.17
2019-01-19T18:58:17.661Z,26.43
2019-01-19T19:01:19.167Z,31.30
2019-01-19T19:04:25.405Z,26.10
2019-01-19T19:07:10.711Z,26.80
2019-01-19T19:10:06.531Z,26.07
2019-01-19T19:13:19.295Z,32.60
2019-01-19T19:16:13.736Z,27.13
2019-01-19T19:19:20.863Z,29.50
2019-01-19T19:22:28.069Z,32.03
2019-01-19T19:25:32.842Z,26.80
2019-01-19T19:28:41.779Z,35.13
2019-01-19T19:31:36.674Z,27.53
2019-01-19T19:34:58.987Z,24.07
2019-01-19T19:38:10.760Z,19.50
2019-01-19T19:41:04.970Z,22.33
2019-01-19T19:44:13.877Z,24.30
2019-01-19T19:47:12.219Z,21.13
2019-01-19T19:50:02.024Z,22.73
2019-01-19T19:52:32.376Z,29.30
2019-01-19T19:55:02.660Z,28.77
2019-01-19T19:57:31.932Z,29.23
2019-01-19T20:00:09.162Z,32.17
2019-01-19T20:02:38.376Z,35.80
2019-01-19T20:05:08.070Z,36.17
2019-01-19T20:07:41.900Z,29.70
2019-01-19T20:10:17.061Z,28.17
2019-01-19T20:12:48.440Z,30.87
2019-01-19T20:15:17.624Z,23.63
2019-01-19T20:17:52.696Z,27.27
2019-01-19T20:20:22.987Z,28.33
2019-01-19T20:22:52.112Z,73.17
2019-01-19T20:25:23.846Z,78.33
2019-01-19T20:27:53.071Z,31.97
2019-01-19T20:30:22.414Z,42.47
2019-01-19T20:32:51.943Z,32.03
2019-01-19T20:35:21.142Z,28.77
2019-01-19T20:37:51.016Z,41.20
2019-01-19T20:40:24.280Z,32.73
2019-01-19T20:42:51.200Z,42.03
2019-01-19T20:45:20.301Z,38.13
2019-01-19T20:47:49.435Z,25.37
2019-01-19T20:50:18.651Z,28.97
2019-01-19T20:52:48.929Z,24.50
2019-01-19T20:55:22.287Z,24.83
2019-01-19T20:58:00.639Z,23.60
2019-01-19T21:00:29.773Z,24.53
2019-01-19T21:03:00.637Z,25.03
2019-01-19T21:05:30.206Z,25.37
2019-01-19T21:08:01.135Z,25.03
2019-01-19T21:10:31.994Z,20.73
2019-01-19T21:13:03.544Z,24.63
2019-01-19T21:15:32.800Z,27.77
2019-01-19T21:18:05.394Z,27.53
2019-01-19T21:20:35.738Z,29.57
2019-01-19T21:23:14.156Z,26.60
2019-01-19T21:25:46.288Z,34.83
2019-01-19T21:28:15.426Z,29.07
2019-01-19T21:30:46.213Z,31.03
2019-01-19T21:33:15.513Z,26.47
2019-01-19T21:35:44.659Z,25.20
2019-01-19T21:38:15.911Z,29.10
2019-01-19T21:40:48.426Z,23.17
2019-01-19T21:43:20.479Z,28.83
2019-01-19T21:45:55.752Z,34.30
2019-01-19T21:48:24.899Z,27.40
2019-01-19T21:50:54.352Z,29.63
2019-01-19T21:53:23.673Z,26.70
2019-01-19T21:55:52.781Z,25.60
2019-01-19T21:58:22.111Z,26.77
2019-01-19T22:00:51.249Z,21.63
2019-01-19T22:03:21.227Z,25.17
2019-01-19T22:05:52.635Z,25.97
2019-01-19T22:08:28.826Z,28.07
2019-01-19T22:10:57.928Z,22.73
2019-01-19T22:13:27.034Z,27.97
2019-01-19T22:15:56.273Z,25.50
2019-01-19T22:18:25.490Z,27.17
2019-01-19T22:20:54.687Z,25.00
2019-01-19T22:23:25.925Z,27.63
2019-01-19T22:25:54.805Z,38.70
2019-01-19T22:28:25.307Z,26.20
2019-01-19T22:30:54.388Z,27.13
2019-01-19T22:33:26.221Z,23.17
2019-01-19T22:35:56.738Z,23.83
2019-01-19T22:38:26.006Z,27.60
2019-01-19T22:40:55.147Z,26.10
2019-01-19T22:43:29.663Z,28.20
2019-01-19T22:45:59.255Z,25.77
2019-01-19T22:48:28.389Z,33.50
2019-01-19T22:50:57.583Z,25.50
2019-01-19T22:53:31.269Z,30.83
2019-01-19T22:56:00.476Z,24.10
2019-01-19T22:58:29.678Z,25.87
2019-01-19T23:01:40.348Z,20.87
2019-01-19T23:04:14.732Z,24.53
2019-01-19T23:06:43.832Z,23.33
2019-01-19T23:09:13.498Z,31.03
2019-01-19T23:11:42.805Z,23.53
2019-01-19T23:14:12.735Z,30.47
2019-01-19T23:16:46.013Z,30.47
2019-01-19T23:19:15.115Z,29.00
2019-01-19T23:21:44.228Z,30.40
2019-01-19T23:24:13.688Z,31.03
2019-01-19T23:26:43.597Z,34.23
2019-01-19T23:29:12.826Z,28.67
2019-01-19T23:31:44.420Z,30.50
2019-01-19T23:34:15.635Z,28.57
2019-01-19T23:36:44.648Z,22.90
2019-01-19T23:39:14.567Z,29.47
2019-01-19T23:41:44.023Z,34.27
2019-01-19T23:44:16.001Z,29.70
2019-01-19T23:46:46.513Z,32.30
2019-01-19T23:49:21.091Z,35.17
2019-01-19T23:51:51.310Z,25.27
2019-01-19T23:54:20.423Z,34.17
2019-01-19T23:56:53.871Z,26.83
2019-01-19T23:59:23.020Z,29.30
